sensor_id;sensor_type;location;lat;lon;timestamp;P1;durP1;ratioP1;P2;durP2;ratioP2
69822;SDS011;57119;52.516;13.508;2023-08-06T00:00:21;11.45;;;7.40;;
69822;SDS011;57119;52.516;13.508;2023-08-06T00:02:47;11.17;;;6.80;;
69822;SDS011;57119;52.516;13.508;2023-08-06T00:05:12;10.95;;;6.97;;
69822;SDS011;57119;52.516;13.508;2023-08-06T00:07:38;10.93;;;7.10;;
69822;SDS011;57119;52.516;13.508;2023-08-06T00:10:03;10.77;;;6.80;;
69822;SDS011;57119;52.516;13.508;2023-08-06T00:12:29;11.23;;;6.90;;
69822;SDS011;57119;52.516;13.508;2023-08-06T00:14:54;16.13;;;9.47;;
69822;SDS011;57119;52.516;13.508;2023-08-06T00:17:20;17.50;;;10.07;;
69822;SDS011;57119;52.516;13.508;2023-08-06T00:19:45;14.50;;;8.53;;
69822;SDS011;57119;52.516;13.508;2023-08-06T00:22:11;12.65;;;7.40;;
69822;SDS011;57119;52.516;13.508;2023-08-06T00:24:36;11.17;;;6.97;;
69822;SDS011;57119;52.516;13.508;2023-08-06T00:27:01;10.77;;;6.90;;
69822;SDS011;57119;52.516;13.508;2023-08-06T00:29:27;13.05;;;7.60;;
69822;SDS011;57119;52.516;13.508;2023-08-06T00:31:53;15.53;;;7.30;;
69822;SDS011;57119;52.516;13.508;2023-08-06T00:34:18;11.97;;;6.50;;
69822;SDS011;57119;52.516;13.508;2023-08-06T00:36:43;14.77;;;6.40;;
69822;SDS011;57119;52.516;13.508;2023-08-06T00:39:09;11.93;;;7.40;;
69822;SDS011;57119;52.516;13.508;2023-08-06T00:41:34;11.03;;;6.93;;
69822;SDS011;57119;52.516;13.508;2023-08-06T00:44:00;11.57;;;6.83;;
69822;SDS011;57119;52.516;13.508;2023-08-06T00:46:25;13.07;;;7.07;;
69822;SDS011;57119;52.516;13.508;2023-08-06T00:48:51;11.18;;;6.93;;
69822;SDS011;57119;52.516;13.508;2023-08-06T00:51:17;11.90;;;7.10;;
69822;SDS011;57119;52.516;13.508;2023-08-06T00:53:42;12.57;;;7.77;;
69822;SDS011;57119;52.516;13.508;2023-08-06T00:56:08;11.43;;;7.30;;
69822;SDS011;57119;52.516;13.508;2023-08-06T00:58:34;11.65;;;8.13;;
69822;SDS011;57119;52.516;13.508;2023-08-06T01:01:01;13.27;;;8.05;;
69822;SDS011;57119;52.516;13.508;2023-08-06T01:03:27;13.27;;;8.27;;
69822;SDS011;57119;52.516;13.508;2023-08-06T01:05:52;16.70;;;8.47;;
69822;SDS011;57119;52.516;13.508;2023-08-06T01:11:27;11.68;;;7.50;;
69822;SDS011;57119;52.516;13.508;2023-08-06T01:14:30;11.48;;;7.43;;
69822;SDS011;57119;52.516;13.508;2023-08-06T01:17:02;14.47;;;8.00;;
69822;SDS011;57119;52.516;13.508;2023-08-06T01:19:29;11.80;;;7.63;;
69822;SDS011;57119;52.516;13.508;2023-08-06T01:21:55;12.77;;;7.80;;
69822;SDS011;57119;52.516;13.508;2023-08-06T01:24:20;12.27;;;8.40;;
69822;SDS011;57119;52.516;13.508;2023-08-06T01:26:55;13.17;;;7.83;;
69822;SDS011;57119;52.516;13.508;2023-08-06T01:29:30;10.97;;;7.20;;
69822;SDS011;57119;52.516;13.508;2023-08-06T01:31:59;14.43;;;8.43;;
69822;SDS011;57119;52.516;13.508;2023-08-06T01:34:28;13.18;;;8.00;;
69822;SDS011;57119;52.516;13.508;2023-08-06T01:36:55;15.50;;;8.10;;
69822;SDS011;57119;52.516;13.508;2023-08-06T01:39:21;13.65;;;7.95;;
69822;SDS011;57119;52.516;13.508;2023-08-06T01:41:50;12.80;;;8.00;;
69822;SDS011;57119;52.516;13.508;2023-08-06T01:44:16;11.95;;;8.13;;
69822;SDS011;57119;52.516;13.508;2023-08-06T01:46:41;13.02;;;8.93;;
69822;SDS011;57119;52.516;13.508;2023-08-06T01:49:07;14.43;;;8.17;;
69822;SDS011;57119;52.516;13.508;2023-08-06T01:51:32;11.97;;;7.77;;
69822;SDS011;57119;52.516;13.508;2023-08-06T01:53:58;15.17;;;8.20;;
69822;SDS011;57119;52.516;13.508;2023-08-06T01:56:24;12.47;;;7.27;;
69822;SDS011;57119;52.516;13.508;2023-08-06T01:58:52;11.52;;;7.00;;
69822;SDS011;57119;52.516;13.508;2023-08-06T02:01:17;11.33;;;7.07;;
69822;SDS011;57119;52.516;13.508;2023-08-06T02:03:43;12.27;;;7.60;;
69822;SDS011;57119;52.516;13.508;2023-08-06T02:06:08;13.57;;;8.07;;
69822;SDS011;57119;52.516;13.508;2023-08-06T02:08:33;14.07;;;8.18;;
69822;SDS011;57119;52.516;13.508;2023-08-06T02:10:59;13.63;;;8.00;;
69822;SDS011;57119;52.516;13.508;2023-08-06T02:13:24;11.23;;;7.70;;
69822;SDS011;57119;52.516;13.508;2023-08-06T02:15:50;14.23;;;8.30;;
69822;SDS011;57119;52.516;13.508;2023-08-06T02:18:15;14.90;;;8.45;;
69822;SDS011;57119;52.516;13.508;2023-08-06T02:20:41;13.13;;;8.80;;
69822;SDS011;57119;52.516;13.508;2023-08-06T02:23:06;13.10;;;8.32;;
69822;SDS011;57119;52.516;13.508;2023-08-06T02:25:32;11.77;;;7.77;;
69822;SDS011;57119;52.516;13.508;2023-08-06T02:27:57;11.77;;;7.97;;
69822;SDS011;57119;52.516;13.508;2023-08-06T02:30:23;14.33;;;8.50;;
69822;SDS011;57119;52.516;13.508;2023-08-06T02:32:48;14.48;;;9.45;;
69822;SDS011;57119;52.516;13.508;2023-08-06T02:35:14;15.20;;;8.80;;
69822;SDS011;57119;52.516;13.508;2023-08-06T02:37:39;13.10;;;8.63;;
69822;SDS011;57119;52.516;13.508;2023-08-06T02:40:04;14.00;;;8.67;;
69822;SDS011;57119;52.516;13.508;2023-08-06T02:42:30;12.87;;;8.17;;
69822;SDS011;57119;52.516;13.508;2023-08-06T02:44:56;13.87;;;8.60;;
69822;SDS011;57119;52.516;13.508;2023-08-06T02:47:21;14.25;;;7.53;;
69822;SDS011;57119;52.516;13.508;2023-08-06T02:49:46;15.37;;;8.37;;
69822;SDS011;57119;52.516;13.508;2023-08-06T02:52:12;12.93;;;8.33;;
69822;SDS011;57119;52.516;13.508;2023-08-06T02:54:37;17.23;;;9.25;;
69822;SDS011;57119;52.516;13.508;2023-08-06T02:57:03;14.70;;;9.33;;
69822;SDS011;57119;52.516;13.508;2023-08-06T02:59:29;14.25;;;8.98;;
69822;SDS011;57119;52.516;13.508;2023-08-06T03:01:55;15.48;;;8.95;;
69822;SDS011;57119;52.516;13.508;2023-08-06T03:04:21;12.73;;;9.17;;
69822;SDS011;57119;52.516;13.508;2023-08-06T03:06:46;13.37;;;8.40;;
69822;SDS011;57119;52.516;13.508;2023-08-06T03:09:11;14.87;;;9.27;;
69822;SDS011;57119;52.516;13.508;2023-08-06T03:11:37;14.53;;;8.97;;
69822;SDS011;57119;52.516;13.508;2023-08-06T03:14:02;13.98;;;9.40;;
69822;SDS011;57119;52.516;13.508;2023-08-06T03:16:28;13.83;;;9.03;;
69822;SDS011;57119;52.516;13.508;2023-08-06T03:18:53;14.70;;;8.87;;
69822;SDS011;57119;52.516;13.508;2023-08-06T03:21:18;13.63;;;7.67;;
69822;SDS011;57119;52.516;13.508;2023-08-06T03:23:46;13.97;;;9.03;;
69822;SDS011;57119;52.516;13.508;2023-08-06T03:26:13;13.80;;;8.60;;
69822;SDS011;57119;52.516;13.508;2023-08-06T03:28:39;12.07;;;8.23;;
69822;SDS011;57119;52.516;13.508;2023-08-06T03:31:04;12.80;;;8.10;;
69822;SDS011;57119;52.516;13.508;2023-08-06T03:33:30;15.00;;;8.10;;
69822;SDS011;57119;52.516;13.508;2023-08-06T03:35:55;13.30;;;8.15;;
69822;SDS011;57119;52.516;13.508;2023-08-06T03:38:21;13.30;;;8.17;;
69822;SDS011;57119;52.516;13.508;2023-08-06T03:40:47;11.43;;;7.40;;
69822;SDS011;57119;52.516;13.508;2023-08-06T03:43:13;13.20;;;7.40;;
69822;SDS011;57119;52.516;13.508;2023-08-06T03:45:40;10.67;;;7.17;;
69822;SDS011;57119;52.516;13.508;2023-08-06T03:48:05;12.45;;;7.25;;
69822;SDS011;57119;52.516;13.508;2023-08-06T03:50:31;12.63;;;6.80;;
69822;SDS011;57119;52.516;13.508;2023-08-06T03:52:56;11.48;;;6.75;;
69822;SDS011;57119;52.516;13.508;2023-08-06T03:55:21;11.47;;;6.67;;
69822;SDS011;57119;52.516;13.508;2023-08-06T03:57:47;10.20;;;6.87;;
69822;SDS011;57119;52.516;13.508;2023-08-06T04:00:12;10.70;;;7.20;;
69822;SDS011;57119;52.516;13.508;2023-08-06T04:02:38;11.90;;;7.10;;
69822;SDS011;57119;52.516;13.508;2023-08-06T04:05:03;10.73;;;6.63;;
69822;SDS011;57119;52.516;13.508;2023-08-06T04:07:29;12.27;;;7.30;;
69822;SDS011;57119;52.516;13.508;2023-08-06T04:09:56;10.40;;;6.77;;
69822;SDS011;57119;52.516;13.508;2023-08-06T04:12:23;12.55;;;7.45;;
69822;SDS011;57119;52.516;13.508;2023-08-06T04:14:50;12.13;;;7.37;;
69822;SDS011;57119;52.516;13.508;2023-08-06T04:17:17;11.63;;;7.43;;
69822;SDS011;57119;52.516;13.508;2023-08-06T04:19:45;11.45;;;6.78;;
69822;SDS011;57119;52.516;13.508;2023-08-06T04:22:14;11.10;;;7.43;;
69822;SDS011;57119;52.516;13.508;2023-08-06T04:24:39;10.40;;;6.43;;
69822;SDS011;57119;52.516;13.508;2023-08-06T04:27:05;11.97;;;7.00;;
69822;SDS011;57119;52.516;13.508;2023-08-06T04:29:30;12.70;;;6.90;;
69822;SDS011;57119;52.516;13.508;2023-08-06T04:31:56;10.75;;;6.30;;
69822;SDS011;57119;52.516;13.508;2023-08-06T04:34:21;12.37;;;6.67;;
69822;SDS011;57119;52.516;13.508;2023-08-06T04:36:46;10.27;;;7.13;;
69822;SDS011;57119;52.516;13.508;2023-08-06T04:39:12;11.10;;;6.53;;
69822;SDS011;57119;52.516;13.508;2023-08-06T04:41:37;12.23;;;7.27;;
69822;SDS011;57119;52.516;13.508;2023-08-06T04:44:02;10.27;;;6.82;;
69822;SDS011;57119;52.516;13.508;2023-08-06T04:46:29;10.40;;;6.93;;
69822;SDS011;57119;52.516;13.508;2023-08-06T04:48:54;10.48;;;6.75;;
69822;SDS011;57119;52.516;13.508;2023-08-06T04:51:20;10.70;;;6.93;;
69822;SDS011;57119;52.516;13.508;2023-08-06T04:53:45;10.60;;;6.77;;
69822;SDS011;57119;52.516;13.508;2023-08-06T04:56:11;10.20;;;6.83;;
69822;SDS011;57119;52.516;13.508;2023-08-06T04:58:36;10.55;;;6.38;;
69822;SDS011;57119;52.516;13.508;2023-08-06T05:01:01;10.03;;;6.50;;
69822;SDS011;57119;52.516;13.508;2023-08-06T05:03:27;10.77;;;6.77;;
69822;SDS011;57119;52.516;13.508;2023-08-06T05:05:52;13.63;;;7.10;;
69822;SDS011;57119;52.516;13.508;2023-08-06T05:08:17;12.67;;;7.03;;
69822;SDS011;57119;52.516;13.508;2023-08-06T05:10:46;11.50;;;7.35;;
69822;SDS011;57119;52.516;13.508;2023-08-06T05:13:11;12.13;;;7.20;;
69822;SDS011;57119;52.516;13.508;2023-08-06T05:15:37;11.10;;;6.77;;
69822;SDS011;57119;52.516;13.508;2023-08-06T05:18:04;10.70;;;6.82;;
69822;SDS011;57119;52.516;13.508;2023-08-06T05:20:30;13.23;;;7.37;;
69822;SDS011;57119;52.516;13.508;2023-08-06T05:22:55;11.32;;;6.90;;
69822;SDS011;57119;52.516;13.508;2023-08-06T05:25:21;11.87;;;6.53;;
69822;SDS011;57119;52.516;13.508;2023-08-06T05:27:46;10.73;;;6.40;;
69822;SDS011;57119;52.516;13.508;2023-08-06T05:30:11;11.93;;;6.83;;
69822;SDS011;57119;52.516;13.508;2023-08-06T05:32:37;11.53;;;6.93;;
69822;SDS011;57119;52.516;13.508;2023-08-06T05:35:02;11.82;;;6.57;;
69822;SDS011;57119;52.516;13.508;2023-08-06T05:37:28;11.17;;;6.83;;
69822;SDS011;57119;52.516;13.508;2023-08-06T05:39:53;11.40;;;6.90;;
69822;SDS011;57119;52.516;13.508;2023-08-06T05:42:18;9.83;;;7.07;;
69822;SDS011;57119;52.516;13.508;2023-08-06T05:44:44;12.23;;;7.20;;
69822;SDS011;57119;52.516;13.508;2023-08-06T05:47:09;11.40;;;6.97;;
69822;SDS011;57119;52.516;13.508;2023-08-06T05:49:35;12.43;;;7.17;;
69822;SDS011;57119;52.516;13.508;2023-08-06T05:52:00;11.87;;;7.40;;
69822;SDS011;57119;52.516;13.508;2023-08-06T05:54:25;10.77;;;6.90;;
69822;SDS011;57119;52.516;13.508;2023-08-06T05:56:51;13.53;;;7.37;;
69822;SDS011;57119;52.516;13.508;2023-08-06T05:59:16;12.90;;;7.77;;
69822;SDS011;57119;52.516;13.508;2023-08-06T06:01:41;11.77;;;6.93;;
69822;SDS011;57119;52.516;13.508;2023-08-06T06:04:07;10.70;;;7.33;;
69822;SDS011;57119;52.516;13.508;2023-08-06T06:06:32;10.57;;;6.77;;
69822;SDS011;57119;52.516;13.508;2023-08-06T06:08:57;10.98;;;7.10;;
69822;SDS011;57119;52.516;13.508;2023-08-06T06:11:23;10.23;;;7.03;;
69822;SDS011;57119;52.516;13.508;2023-08-06T06:13:51;10.43;;;7.13;;
69822;SDS011;57119;52.516;13.508;2023-08-06T06:16:17;11.82;;;7.40;;
69822;SDS011;57119;52.516;13.508;2023-08-06T06:18:42;11.53;;;7.30;;
69822;SDS011;57119;52.516;13.508;2023-08-06T06:21:08;11.00;;;7.27;;
69822;SDS011;57119;52.516;13.508;2023-08-06T06:23:34;10.60;;;6.32;;
69822;SDS011;57119;52.516;13.508;2023-08-06T06:25:59;9.83;;;6.37;;
69822;SDS011;57119;52.516;13.508;2023-08-06T06:28:25;11.93;;;6.55;;
69822;SDS011;57119;52.516;13.508;2023-08-06T06:31:00;11.10;;;6.27;;
69822;SDS011;57119;52.516;13.508;2023-08-06T06:33:26;9.43;;;5.97;;
69822;SDS011;57119;52.516;13.508;2023-08-06T06:35:52;9.63;;;6.47;;
69822;SDS011;57119;52.516;13.508;2023-08-06T06:38:17;9.93;;;6.10;;
69822;SDS011;57119;52.516;13.508;2023-08-06T06:40:42;9.90;;;6.33;;
69822;SDS011;57119;52.516;13.508;2023-08-06T06:43:08;9.57;;;6.40;;
69822;SDS011;57119;52.516;13.508;2023-08-06T06:45:33;9.60;;;6.13;;
69822;SDS011;57119;52.516;13.508;2023-08-06T06:47:58;10.77;;;6.33;;
69822;SDS011;57119;52.516;13.508;2023-08-06T06:50:24;11.57;;;6.40;;
69822;SDS011;57119;52.516;13.508;2023-08-06T06:52:49;10.30;;;5.83;;
69822;SDS011;57119;52.516;13.508;2023-08-06T06:55:15;10.20;;;6.10;;
69822;SDS011;57119;52.516;13.508;2023-08-06T06:57:40;10.70;;;6.73;;
69822;SDS011;57119;52.516;13.508;2023-08-06T07:00:05;9.33;;;6.30;;
69822;SDS011;57119;52.516;13.508;2023-08-06T07:02:31;10.82;;;7.13;;
69822;SDS011;57119;52.516;13.508;2023-08-06T07:04:57;10.93;;;7.30;;
69822;SDS011;57119;52.516;13.508;2023-08-06T07:07:22;9.60;;;6.57;;
69822;SDS011;57119;52.516;13.508;2023-08-06T07:09:48;11.85;;;7.50;;
69822;SDS011;57119;52.516;13.508;2023-08-06T07:12:13;10.87;;;7.40;;
69822;SDS011;57119;52.516;13.508;2023-08-06T07:14:39;11.17;;;7.20;;
69822;SDS011;57119;52.516;13.508;2023-08-06T07:17:04;10.73;;;6.60;;
69822;SDS011;57119;52.516;13.508;2023-08-06T07:19:33;11.10;;;7.10;;
69822;SDS011;57119;52.516;13.508;2023-08-06T07:21:58;11.63;;;6.65;;
69822;SDS011;57119;52.516;13.508;2023-08-06T07:24:24;10.60;;;6.53;;
69822;SDS011;57119;52.516;13.508;2023-08-06T07:26:49;11.30;;;6.77;;
69822;SDS011;57119;52.516;13.508;2023-08-06T07:29:15;10.70;;;7.00;;
69822;SDS011;57119;52.516;13.508;2023-08-06T07:31:46;13.40;;;6.97;;
69822;SDS011;57119;52.516;13.508;2023-08-06T07:34:11;10.85;;;7.03;;
69822;SDS011;57119;52.516;13.508;2023-08-06T07:36:37;9.50;;;6.53;;
69822;SDS011;57119;52.516;13.508;2023-08-06T07:39:02;10.23;;;6.28;;
69822;SDS011;57119;52.516;13.508;2023-08-06T07:41:31;11.05;;;7.00;;
69822;SDS011;57119;52.516;13.508;2023-08-06T07:44:00;10.70;;;6.53;;
69822;SDS011;57119;52.516;13.508;2023-08-06T07:46:25;9.90;;;6.85;;
69822;SDS011;57119;52.516;13.508;2023-08-06T07:48:51;10.87;;;7.17;;
69822;SDS011;57119;52.516;13.508;2023-08-06T07:51:16;9.37;;;6.43;;
69822;SDS011;57119;52.516;13.508;2023-08-06T07:53:41;10.67;;;6.53;;
69822;SDS011;57119;52.516;13.508;2023-08-06T07:56:07;8.97;;;6.20;;
69822;SDS011;57119;52.516;13.508;2023-08-06T07:58:32;9.55;;;6.50;;
69822;SDS011;57119;52.516;13.508;2023-08-06T08:00:58;8.23;;;5.63;;
69822;SDS011;57119;52.516;13.508;2023-08-06T08:03:23;9.93;;;5.80;;
69822;SDS011;57119;52.516;13.508;2023-08-06T08:05:49;8.53;;;5.53;;
69822;SDS011;57119;52.516;13.508;2023-08-06T08:08:14;9.27;;;5.20;;
69822;SDS011;57119;52.516;13.508;2023-08-06T08:10:40;8.90;;;5.63;;
69822;SDS011;57119;52.516;13.508;2023-08-06T08:13:05;10.35;;;5.97;;
69822;SDS011;57119;52.516;13.508;2023-08-06T08:15:31;9.93;;;5.63;;
69822;SDS011;57119;52.516;13.508;2023-08-06T08:17:57;9.73;;;5.75;;
69822;SDS011;57119;52.516;13.508;2023-08-06T08:20:23;9.40;;;5.70;;
69822;SDS011;57119;52.516;13.508;2023-08-06T08:22:48;9.55;;;6.15;;
69822;SDS011;57119;52.516;13.508;2023-08-06T08:25:15;9.07;;;5.73;;
69822;SDS011;57119;52.516;13.508;2023-08-06T08:27:40;9.23;;;6.35;;
69822;SDS011;57119;52.516;13.508;2023-08-06T08:30:06;10.97;;;6.20;;
69822;SDS011;57119;52.516;13.508;2023-08-06T08:32:34;10.07;;;6.72;;
69822;SDS011;57119;52.516;13.508;2023-08-06T08:35:00;11.45;;;6.90;;
69822;SDS011;57119;52.516;13.508;2023-08-06T08:37:25;11.50;;;6.33;;
69822;SDS011;57119;52.516;13.508;2023-08-06T08:39:54;10.50;;;7.23;;
69822;SDS011;57119;52.516;13.508;2023-08-06T08:42:19;10.97;;;7.27;;
69822;SDS011;57119;52.516;13.508;2023-08-06T08:44:45;10.60;;;6.65;;
69822;SDS011;57119;52.516;13.508;2023-08-06T08:47:11;11.33;;;7.23;;
69822;SDS011;57119;52.516;13.508;2023-08-06T08:49:37;12.02;;;7.22;;
69822;SDS011;57119;52.516;13.508;2023-08-06T08:52:04;11.40;;;6.80;;
69822;SDS011;57119;52.516;13.508;2023-08-06T08:54:31;11.52;;;7.15;;
69822;SDS011;57119;52.516;13.508;2023-08-06T08:56:58;11.48;;;7.47;;
69822;SDS011;57119;52.516;13.508;2023-08-06T08:59:23;12.47;;;8.20;;
69822;SDS011;57119;52.516;13.508;2023-08-06T09:01:49;10.73;;;7.30;;
69822;SDS011;57119;52.516;13.508;2023-08-06T09:04:16;11.48;;;6.95;;
69822;SDS011;57119;52.516;13.508;2023-08-06T09:06:42;12.27;;;7.40;;
69822;SDS011;57119;52.516;13.508;2023-08-06T09:09:12;14.52;;;8.65;;
69822;SDS011;57119;52.516;13.508;2023-08-06T09:11:42;13.32;;;7.95;;
69822;SDS011;57119;52.516;13.508;2023-08-06T09:14:09;11.70;;;8.00;;
69822;SDS011;57119;52.516;13.508;2023-08-06T09:16:35;11.25;;;7.72;;
69822;SDS011;57119;52.516;13.508;2023-08-06T09:19:08;11.20;;;7.70;;
69822;SDS011;57119;52.516;13.508;2023-08-06T09:21:36;15.45;;;8.10;;
69822;SDS011;57119;52.516;13.508;2023-08-06T09:24:07;14.05;;;8.40;;
69822;SDS011;57119;52.516;13.508;2023-08-06T09:26:34;12.37;;;8.40;;
69822;SDS011;57119;52.516;13.508;2023-08-06T09:28:59;13.20;;;8.57;;
69822;SDS011;57119;52.516;13.508;2023-08-06T09:31:28;12.70;;;7.87;;
69822;SDS011;57119;52.516;13.508;2023-08-06T09:34:02;9.48;;;6.78;;
69822;SDS011;57119;52.516;13.508;2023-08-06T09:36:27;9.60;;;6.63;;
69822;SDS011;57119;52.516;13.508;2023-08-06T09:38:53;10.57;;;7.43;;
69822;SDS011;57119;52.516;13.508;2023-08-06T09:41:27;9.90;;;6.00;;
69822;SDS011;57119;52.516;13.508;2023-08-06T09:43:56;10.70;;;6.60;;
69822;SDS011;57119;52.516;13.508;2023-08-06T09:46:21;10.98;;;6.40;;
69822;SDS011;57119;52.516;13.508;2023-08-06T09:48:47;9.20;;;5.97;;
69822;SDS011;57119;52.516;13.508;2023-08-06T09:51:13;13.13;;;6.78;;
69822;SDS011;57119;52.516;13.508;2023-08-06T09:53:38;9.10;;;6.00;;
69822;SDS011;57119;52.516;13.508;2023-08-06T09:56:05;9.67;;;6.20;;
69822;SDS011;57119;52.516;13.508;2023-08-06T09:58:31;10.15;;;6.10;;
69822;SDS011;57119;52.516;13.508;2023-08-06T10:00:58;11.07;;;6.47;;
69822;SDS011;57119;52.516;13.508;2023-08-06T10:03:25;9.15;;;6.38;;
69822;SDS011;57119;52.516;13.508;2023-08-06T10:05:52;10.45;;;6.18;;
69822;SDS011;57119;52.516;13.508;2023-08-06T10:08:18;10.23;;;6.57;;
69822;SDS011;57119;52.516;13.508;2023-08-06T10:10:43;9.90;;;6.33;;
69822;SDS011;57119;52.516;13.508;2023-08-06T10:13:10;9.68;;;5.93;;
69822;SDS011;57119;52.516;13.508;2023-08-06T10:15:38;8.88;;;5.57;;
69822;SDS011;57119;52.516;13.508;2023-08-06T10:18:04;8.37;;;5.07;;
69822;SDS011;57119;52.516;13.508;2023-08-06T10:20:33;7.40;;;4.63;;
69822;SDS011;57119;52.516;13.508;2023-08-06T10:23:00;7.57;;;4.68;;
69822;SDS011;57119;52.516;13.508;2023-08-06T10:25:31;7.28;;;3.90;;
69822;SDS011;57119;52.516;13.508;2023-08-06T10:27:58;7.47;;;4.10;;
69822;SDS011;57119;52.516;13.508;2023-08-06T10:30:24;7.00;;;4.20;;
69822;SDS011;57119;52.516;13.508;2023-08-06T10:32:51;6.53;;;4.05;;
69822;SDS011;57119;52.516;13.508;2023-08-06T10:37:57;7.57;;;3.95;;
69822;SDS011;57119;52.516;13.508;2023-08-06T10:40:23;7.88;;;4.07;;
69822;SDS011;57119;52.516;13.508;2023-08-06T10:42:49;6.65;;;4.05;;
69822;SDS011;57119;52.516;13.508;2023-08-06T10:45:16;6.43;;;3.50;;
69822;SDS011;57119;52.516;13.508;2023-08-06T10:47:44;6.30;;;3.78;;
69822;SDS011;57119;52.516;13.508;2023-08-06T10:50:14;6.03;;;3.42;;
69822;SDS011;57119;52.516;13.508;2023-08-06T10:52:43;7.13;;;4.00;;
69822;SDS011;57119;52.516;13.508;2023-08-06T10:55:09;6.40;;;3.37;;
69822;SDS011;57119;52.516;13.508;2023-08-06T10:57:35;7.78;;;3.72;;
69822;SDS011;57119;52.516;13.508;2023-08-06T11:00:01;6.47;;;3.60;;
69822;SDS011;57119;52.516;13.508;2023-08-06T11:02:26;7.70;;;4.10;;
69822;SDS011;57119;52.516;13.508;2023-08-06T11:04:53;7.97;;;4.13;;
69822;SDS011;57119;52.516;13.508;2023-08-06T11:07:18;7.53;;;3.97;;
69822;SDS011;57119;52.516;13.508;2023-08-06T11:09:43;7.80;;;4.10;;
69822;SDS011;57119;52.516;13.508;2023-08-06T11:12:09;7.13;;;4.03;;
69822;SDS011;57119;52.516;13.508;2023-08-06T11:14:35;7.65;;;4.35;;
69822;SDS011;57119;52.516;13.508;2023-08-06T11:17:01;7.82;;;3.83;;
69822;SDS011;57119;52.516;13.508;2023-08-06T11:19:26;6.93;;;3.93;;
69822;SDS011;57119;52.516;13.508;2023-08-06T11:21:52;7.47;;;4.50;;
69822;SDS011;57119;52.516;13.508;2023-08-06T11:24:17;6.50;;;4.00;;
69822;SDS011;57119;52.516;13.508;2023-08-06T11:26:43;8.80;;;4.90;;
69822;SDS011;57119;52.516;13.508;2023-08-06T11:29:09;7.95;;;4.70;;
69822;SDS011;57119;52.516;13.508;2023-08-06T11:31:35;8.30;;;4.57;;
69822;SDS011;57119;52.516;13.508;2023-08-06T11:34:01;8.37;;;4.80;;
69822;SDS011;57119;52.516;13.508;2023-08-06T11:36:33;8.37;;;4.67;;
69822;SDS011;57119;52.516;13.508;2023-08-06T11:38:59;8.13;;;5.13;;
69822;SDS011;57119;52.516;13.508;2023-08-06T11:41:25;8.43;;;5.27;;
69822;SDS011;57119;52.516;13.508;2023-08-06T11:43:53;8.90;;;4.95;;
69822;SDS011;57119;52.516;13.508;2023-08-06T11:46:18;8.30;;;5.07;;
69822;SDS011;57119;52.516;13.508;2023-08-06T11:48:56;8.35;;;5.13;;
69822;SDS011;57119;52.516;13.508;2023-08-06T11:51:23;8.43;;;5.20;;
69822;SDS011;57119;52.516;13.508;2023-08-06T11:53:51;9.15;;;5.22;;
69822;SDS011;57119;52.516;13.508;2023-08-06T11:56:20;8.20;;;5.05;;
69822;SDS011;57119;52.516;13.508;2023-08-06T11:58:45;7.67;;;5.07;;
69822;SDS011;57119;52.516;13.508;2023-08-06T12:01:10;8.87;;;5.47;;
69822;SDS011;57119;52.516;13.508;2023-08-06T12:03:39;7.47;;;4.50;;
69822;SDS011;57119;52.516;13.508;2023-08-06T12:06:05;8.77;;;4.93;;
69822;SDS011;57119;52.516;13.508;2023-08-06T12:08:32;8.50;;;5.30;;
69822;SDS011;57119;52.516;13.508;2023-08-06T12:10:58;8.98;;;5.72;;
69822;SDS011;57119;52.516;13.508;2023-08-06T12:13:23;8.60;;;5.83;;
69822;SDS011;57119;52.516;13.508;2023-08-06T12:15:49;9.37;;;5.43;;
69822;SDS011;57119;52.516;13.508;2023-08-06T12:18:14;8.80;;;5.53;;
69822;SDS011;57119;52.516;13.508;2023-08-06T12:20:39;8.30;;;4.90;;
69822;SDS011;57119;52.516;13.508;2023-08-06T12:23:05;8.33;;;5.27;;
69822;SDS011;57119;52.516;13.508;2023-08-06T12:25:30;8.87;;;4.90;;
69822;SDS011;57119;52.516;13.508;2023-08-06T12:27:56;8.07;;;4.77;;
69822;SDS011;57119;52.516;13.508;2023-08-06T12:30:21;7.57;;;4.83;;
69822;SDS011;57119;52.516;13.508;2023-08-06T12:32:46;7.80;;;5.07;;
69822;SDS011;57119;52.516;13.508;2023-08-06T12:35:12;8.93;;;5.27;;
69822;SDS011;57119;52.516;13.508;2023-08-06T12:37:39;8.15;;;5.43;;
69822;SDS011;57119;52.516;13.508;2023-08-06T12:40:04;8.37;;;4.60;;
69822;SDS011;57119;52.516;13.508;2023-08-06T12:42:30;8.77;;;4.90;;
69822;SDS011;57119;52.516;13.508;2023-08-06T12:44:55;8.37;;;5.10;;
69822;SDS011;57119;52.516;13.508;2023-08-06T12:47:21;8.68;;;5.43;;
69822;SDS011;57119;52.516;13.508;2023-08-06T12:49:46;8.73;;;5.20;;
69822;SDS011;57119;52.516;13.508;2023-08-06T12:52:12;8.20;;;4.77;;
69822;SDS011;57119;52.516;13.508;2023-08-06T12:54:40;8.77;;;4.95;;
69822;SDS011;57119;52.516;13.508;2023-08-06T12:57:05;8.77;;;5.40;;
69822;SDS011;57119;52.516;13.508;2023-08-06T12:59:31;9.07;;;5.10;;
69822;SDS011;57119;52.516;13.508;2023-08-06T13:01:58;8.32;;;5.18;;
69822;SDS011;57119;52.516;13.508;2023-08-06T13:04:23;9.00;;;5.57;;
69822;SDS011;57119;52.516;13.508;2023-08-06T13:06:49;11.02;;;6.07;;
69822;SDS011;57119;52.516;13.508;2023-08-06T13:09:14;9.27;;;5.33;;
69822;SDS011;57119;52.516;13.508;2023-08-06T13:11:40;8.40;;;4.85;;
69822;SDS011;57119;52.516;13.508;2023-08-06T13:14:07;8.77;;;5.20;;
69822;SDS011;57119;52.516;13.508;2023-08-06T13:16:34;8.83;;;5.23;;
69822;SDS011;57119;52.516;13.508;2023-08-06T13:19:00;9.38;;;5.38;;
69822;SDS011;57119;52.516;13.508;2023-08-06T13:21:36;10.13;;;5.82;;
69822;SDS011;57119;52.516;13.508;2023-08-06T13:24:23;12.57;;;5.53;;
69822;SDS011;57119;52.516;13.508;2023-08-06T13:26:48;9.85;;;5.20;;
69822;SDS011;57119;52.516;13.508;2023-08-06T13:29:14;9.53;;;5.63;;
69822;SDS011;57119;52.516;13.508;2023-08-06T13:31:39;8.47;;;5.07;;
69822;SDS011;57119;52.516;13.508;2023-08-06T13:34:04;9.33;;;5.40;;
69822;SDS011;57119;52.516;13.508;2023-08-06T13:36:30;9.77;;;5.30;;
69822;SDS011;57119;52.516;13.508;2023-08-06T13:38:56;8.82;;;5.45;;
69822;SDS011;57119;52.516;13.508;2023-08-06T13:41:22;8.65;;;5.13;;
69822;SDS011;57119;52.516;13.508;2023-08-06T13:43:47;10.00;;;5.50;;
69822;SDS011;57119;52.516;13.508;2023-08-06T13:46:13;8.35;;;4.68;;
69822;SDS011;57119;52.516;13.508;2023-08-06T13:48:43;8.23;;;4.78;;
69822;SDS011;57119;52.516;13.508;2023-08-06T13:51:09;8.97;;;4.60;;
69822;SDS011;57119;52.516;13.508;2023-08-06T13:53:36;10.30;;;4.97;;
69822;SDS011;57119;52.516;13.508;2023-08-06T13:56:02;8.45;;;4.63;;
69822;SDS011;57119;52.516;13.508;2023-08-06T13:58:28;9.35;;;4.63;;
69822;SDS011;57119;52.516;13.508;2023-08-06T14:00:53;9.30;;;5.23;;
69822;SDS011;57119;52.516;13.508;2023-08-06T14:03:19;8.70;;;4.90;;
69822;SDS011;57119;52.516;13.508;2023-08-06T14:05:45;10.57;;;6.47;;
69822;SDS011;57119;52.516;13.508;2023-08-06T14:08:11;8.85;;;4.68;;
69822;SDS011;57119;52.516;13.508;2023-08-06T14:10:36;8.13;;;3.97;;
69822;SDS011;57119;52.516;13.508;2023-08-06T14:13:02;7.17;;;3.67;;
69822;SDS011;57119;52.516;13.508;2023-08-06T14:15:27;8.63;;;4.15;;
69822;SDS011;57119;52.516;13.508;2023-08-06T14:17:52;9.37;;;4.60;;
69822;SDS011;57119;52.516;13.508;2023-08-06T14:20:18;7.13;;;3.60;;
69822;SDS011;57119;52.516;13.508;2023-08-06T14:22:43;8.13;;;4.30;;
69822;SDS011;57119;52.516;13.508;2023-08-06T14:25:08;7.83;;;3.93;;